sensor_id;sensor_type;location;lat;lon;timestamp;P1;durP1;ratioP1;P2;durP2;ratioP2
7398;SDS011;3740;50.700;7.184;2023-01-25T00:01:58;17.00;;;15.30;;
7398;SDS011;3740;50.700;7.184;2023-01-25T00:04:24;14.27;;;12.97;;
7398;SDS011;3740;50.700;7.184;2023-01-25T00:06:49;15.27;;;13.50;;
7398;SDS011;3740;50.700;7.184;2023-01-25T00:09:15;16.40;;;14.83;;
7398;SDS011;3740;50.700;7.184;2023-01-25T00:11:42;15.17;;;13.73;;
7398;SDS011;3740;50.700;7.184;2023-01-25T00:14:09;16.63;;;14.83;;
7398;SDS011;3740;50.700;7.184;2023-01-25T00:16:35;15.57;;;14.10;;
7398;SDS011;3740;50.700;7.184;2023-01-25T00:19:01;15.37;;;13.97;;
7398;SDS011;3740;50.700;7.184;2023-01-25T00:21:27;16.03;;;14.53;;
7398;SDS011;3740;50.700;7.184;2023-01-25T00:23:53;16.50;;;14.83;;
7398;SDS011;3740;50.700;7.184;2023-01-25T00:26:19;15.33;;;13.93;;
7398;SDS011;3740;50.700;7.184;2023-01-25T00:28:51;14.93;;;13.53;;
7398;SDS011;3740;50.700;7.184;2023-01-25T00:31:25;16.00;;;14.43;;
7398;SDS011;3740;50.700;7.184;2023-01-25T00:34:19;14.67;;;13.27;;
7398;SDS011;3740;50.700;7.184;2023-01-25T00:39:30;14.73;;;13.30;;
7398;SDS011;3740;50.700;7.184;2023-01-25T00:41:56;13.60;;;12.30;;
7398;SDS011;3740;50.700;7.184;2023-01-25T00:44:21;14.30;;;12.90;;
7398;SDS011;3740;50.700;7.184;2023-01-25T00:46:47;14.40;;;12.90;;
7398;SDS011;3740;50.700;7.184;2023-01-25T00:49:18;14.23;;;12.93;;
7398;SDS011;3740;50.700;7.184;2023-01-25T00:51:48;14.97;;;13.47;;
7398;SDS011;3740;50.700;7.184;2023-01-25T00:54:14;14.10;;;12.80;;
7398;SDS011;3740;50.700;7.184;2023-01-25T00:56:40;13.70;;;12.40;;
7398;SDS011;3740;50.700;7.184;2023-01-25T00:59:05;14.80;;;13.40;;
7398;SDS011;3740;50.700;7.184;2023-01-25T01:01:31;14.13;;;12.77;;
7398;SDS011;3740;50.700;7.184;2023-01-25T01:03:57;15.63;;;14.13;;
7398;SDS011;3740;50.700;7.184;2023-01-25T01:06:23;13.60;;;12.40;;
7398;SDS011;3740;50.700;7.184;2023-01-25T01:08:49;13.97;;;12.67;;
7398;SDS011;3740;50.700;7.184;2023-01-25T01:11:14;14.37;;;12.97;;
7398;SDS011;3740;50.700;7.184;2023-01-25T01:13:40;14.40;;;13.07;;
7398;SDS011;3740;50.700;7.184;2023-01-25T01:16:06;14.97;;;13.43;;
7398;SDS011;3740;50.700;7.184;2023-01-25T01:18:36;14.33;;;12.93;;
7398;SDS011;3740;50.700;7.184;2023-01-25T01:21:04;13.63;;;12.33;;
7398;SDS011;3740;50.700;7.184;2023-01-25T01:23:30;14.87;;;13.47;;
7398;SDS011;3740;50.700;7.184;2023-01-25T01:25:58;15.43;;;13.93;;
7398;SDS011;3740;50.700;7.184;2023-01-25T01:28:26;14.90;;;13.50;;
7398;SDS011;3740;50.700;7.184;2023-01-25T01:30:53;15.03;;;13.57;;
7398;SDS011;3740;50.700;7.184;2023-01-25T01:33:23;14.43;;;13.03;;
7398;SDS011;3740;50.700;7.184;2023-01-25T01:35:48;14.67;;;13.27;;
7398;SDS011;3740;50.700;7.184;2023-01-25T01:38:14;14.70;;;13.30;;
7398;SDS011;3740;50.700;7.184;2023-01-25T01:40:43;13.80;;;12.50;;
7398;SDS011;3740;50.700;7.184;2023-01-25T01:43:16;14.90;;;13.43;;
7398;SDS011;3740;50.700;7.184;2023-01-25T01:50:53;14.73;;;13.30;;
7398;SDS011;3740;50.700;7.184;2023-01-25T01:53:21;15.27;;;13.77;;
7398;SDS011;3740;50.700;7.184;2023-01-25T01:55:48;14.63;;;13.23;;
7398;SDS011;3740;50.700;7.184;2023-01-25T01:58:15;14.73;;;13.37;;
7398;SDS011;3740;50.700;7.184;2023-01-25T02:00:41;15.13;;;13.73;;
7398;SDS011;3740;50.700;7.184;2023-01-25T02:03:07;15.23;;;13.70;;
7398;SDS011;3740;50.700;7.184;2023-01-25T02:05:39;13.57;;;12.33;;
7398;SDS011;3740;50.700;7.184;2023-01-25T02:08:18;14.23;;;12.83;;
7398;SDS011;3740;50.700;7.184;2023-01-25T02:10:44;14.37;;;12.97;;
7398;SDS011;3740;50.700;7.184;2023-01-25T02:13:11;14.63;;;13.23;;
7398;SDS011;3740;50.700;7.184;2023-01-25T02:15:40;14.13;;;12.83;;
7398;SDS011;3740;50.700;7.184;2023-01-25T02:18:09;15.07;;;13.67;;
7398;SDS011;3740;50.700;7.184;2023-01-25T02:25:45;13.87;;;12.57;;
7398;SDS011;3740;50.700;7.184;2023-01-25T02:28:18;14.20;;;12.70;;
7398;SDS011;3740;50.700;7.184;2023-01-25T02:30:48;12.67;;;11.47;;
7398;SDS011;3740;50.700;7.184;2023-01-25T02:33:13;14.20;;;12.83;;
7398;SDS011;3740;50.700;7.184;2023-01-25T02:35:40;13.97;;;12.63;;
7398;SDS011;3740;50.700;7.184;2023-01-25T02:38:15;14.27;;;12.87;;
7398;SDS011;3740;50.700;7.184;2023-01-25T02:40:56;14.37;;;12.97;;
7398;SDS011;3740;50.700;7.184;2023-01-25T02:43:27;14.23;;;12.87;;
7398;SDS011;3740;50.700;7.184;2023-01-25T02:46:02;15.20;;;13.70;;
7398;SDS011;3740;50.700;7.184;2023-01-25T02:48:36;13.90;;;12.60;;
7398;SDS011;3740;50.700;7.184;2023-01-25T02:51:01;13.63;;;12.37;;
7398;SDS011;3740;50.700;7.184;2023-01-25T02:53:30;13.93;;;12.63;;
7398;SDS011;3740;50.700;7.184;2023-01-25T02:55:56;13.43;;;12.13;;
7398;SDS011;3740;50.700;7.184;2023-01-25T02:58:21;14.20;;;12.90;;
7398;SDS011;3740;50.700;7.184;2023-01-25T03:00:47;14.07;;;12.77;;
7398;SDS011;3740;50.700;7.184;2023-01-25T03:03:12;14.50;;;13.10;;
7398;SDS011;3740;50.700;7.184;2023-01-25T03:05:38;15.17;;;13.77;;
7398;SDS011;3740;50.700;7.184;2023-01-25T03:08:03;14.53;;;13.13;;
7398;SDS011;3740;50.700;7.184;2023-01-25T03:10:29;13.57;;;12.17;;
7398;SDS011;3740;50.700;7.184;2023-01-25T03:12:54;13.93;;;12.63;;
7398;SDS011;3740;50.700;7.184;2023-01-25T03:15:20;14.23;;;12.93;;
7398;SDS011;3740;50.700;7.184;2023-01-25T03:17:46;14.00;;;12.63;;
7398;SDS011;3740;50.700;7.184;2023-01-25T03:20:11;14.57;;;13.07;;
7398;SDS011;3740;50.700;7.184;2023-01-25T03:22:37;15.13;;;13.73;;
7398;SDS011;3740;50.700;7.184;2023-01-25T03:25:02;14.43;;;13.03;;
7398;SDS011;3740;50.700;7.184;2023-01-25T03:27:29;14.13;;;12.83;;
7398;SDS011;3740;50.700;7.184;2023-01-25T03:29:54;15.20;;;13.70;;
7398;SDS011;3740;50.700;7.184;2023-01-25T03:32:20;14.90;;;13.50;;
7398;SDS011;3740;50.700;7.184;2023-01-25T03:34:46;15.40;;;13.80;;
7398;SDS011;3740;50.700;7.184;2023-01-25T03:37:11;14.63;;;13.23;;
7398;SDS011;3740;50.700;7.184;2023-01-25T03:39:37;14.70;;;13.30;;
7398;SDS011;3740;50.700;7.184;2023-01-25T03:42:02;13.83;;;12.53;;
7398;SDS011;3740;50.700;7.184;2023-01-25T03:44:28;13.83;;;12.53;;
7398;SDS011;3740;50.700;7.184;2023-01-25T03:46:53;15.20;;;13.70;;
7398;SDS011;3740;50.700;7.184;2023-01-25T03:49:19;14.23;;;12.93;;
7398;SDS011;3740;50.700;7.184;2023-01-25T03:51:45;14.57;;;13.17;;
7398;SDS011;3740;50.700;7.184;2023-01-25T03:54:10;14.90;;;13.50;;
7398;SDS011;3740;50.700;7.184;2023-01-25T03:56:36;15.00;;;13.60;;
7398;SDS011;3740;50.700;7.184;2023-01-25T03:59:02;14.87;;;13.47;;
7398;SDS011;3740;50.700;7.184;2023-01-25T04:01:28;15.63;;;14.13;;
7398;SDS011;3740;50.700;7.184;2023-01-25T04:03:54;14.83;;;13.33;;
7398;SDS011;3740;50.700;7.184;2023-01-25T04:06:19;15.73;;;14.23;;
7398;SDS011;3740;50.700;7.184;2023-01-25T04:08:45;14.87;;;13.40;;
7398;SDS011;3740;50.700;7.184;2023-01-25T04:11:10;15.27;;;13.80;;
7398;SDS011;3740;50.700;7.184;2023-01-25T04:13:36;15.63;;;14.13;;
7398;SDS011;3740;50.700;7.184;2023-01-25T04:16:03;15.47;;;13.97;;
7398;SDS011;3740;50.700;7.184;2023-01-25T04:18:30;15.47;;;13.97;;
7398;SDS011;3740;50.700;7.184;2023-01-25T04:20:56;15.83;;;14.30;;
7398;SDS011;3740;50.700;7.184;2023-01-25T04:23:22;15.40;;;13.90;;
7398;SDS011;3740;50.700;7.184;2023-01-25T04:25:53;15.40;;;13.80;;
7398;SDS011;3740;50.700;7.184;2023-01-25T04:28:18;15.53;;;14.03;;
7398;SDS011;3740;50.700;7.184;2023-01-25T04:30:44;14.63;;;13.23;;
7398;SDS011;3740;50.700;7.184;2023-01-25T04:33:10;15.30;;;13.73;;
7398;SDS011;3740;50.700;7.184;2023-01-25T04:35:36;15.97;;;14.37;;
7398;SDS011;3740;50.700;7.184;2023-01-25T04:38:02;15.13;;;13.70;;
7398;SDS011;3740;50.700;7.184;2023-01-25T04:40:28;14.17;;;12.87;;
7398;SDS011;3740;50.700;7.184;2023-01-25T04:42:53;15.70;;;14.07;;
7398;SDS011;3740;50.700;7.184;2023-01-25T04:45:19;14.47;;;13.07;;
7398;SDS011;3740;50.700;7.184;2023-01-25T04:47:44;15.13;;;13.67;;
7398;SDS011;3740;50.700;7.184;2023-01-25T04:50:10;16.80;;;15.20;;
7398;SDS011;3740;50.700;7.184;2023-01-25T04:52:35;15.27;;;13.77;;
7398;SDS011;3740;50.700;7.184;2023-01-25T04:55:01;16.60;;;15.00;;
7398;SDS011;3740;50.700;7.184;2023-01-25T04:57:27;14.73;;;13.23;;
7398;SDS011;3740;50.700;7.184;2023-01-25T04:59:52;15.30;;;13.80;;
7398;SDS011;3740;50.700;7.184;2023-01-25T05:02:18;15.17;;;13.67;;
7398;SDS011;3740;50.700;7.184;2023-01-25T05:04:43;15.57;;;14.07;;
7398;SDS011;3740;50.700;7.184;2023-01-25T05:07:09;15.70;;;14.20;;
7398;SDS011;3740;50.700;7.184;2023-01-25T05:09:34;15.17;;;13.67;;
7398;SDS011;3740;50.700;7.184;2023-01-25T05:12:00;16.20;;;14.63;;
7398;SDS011;3740;50.700;7.184;2023-01-25T05:14:25;14.67;;;13.27;;
7398;SDS011;3740;50.700;7.184;2023-01-25T05:16:51;14.23;;;12.93;;
7398;SDS011;3740;50.700;7.184;2023-01-25T05:19:16;15.10;;;13.60;;
7398;SDS011;3740;50.700;7.184;2023-01-25T05:21:42;16.17;;;14.10;;
7398;SDS011;3740;50.700;7.184;2023-01-25T05:24:26;14.07;;;12.73;;
7398;SDS011;3740;50.700;7.184;2023-01-25T05:26:56;13.87;;;12.47;;
7398;SDS011;3740;50.700;7.184;2023-01-25T05:29:28;14.30;;;12.90;;
7398;SDS011;3740;50.700;7.184;2023-01-25T05:31:55;13.37;;;12.07;;
7398;SDS011;3740;50.700;7.184;2023-01-25T05:34:22;15.37;;;13.87;;
7398;SDS011;3740;50.700;7.184;2023-01-25T05:36:47;13.73;;;12.43;;
7398;SDS011;3740;50.700;7.184;2023-01-25T05:39:13;14.47;;;13.07;;
7398;SDS011;3740;50.700;7.184;2023-01-25T05:41:39;14.33;;;12.93;;
7398;SDS011;3740;50.700;7.184;2023-01-25T05:44:04;14.37;;;13.00;;
7398;SDS011;3740;50.700;7.184;2023-01-25T05:46:30;14.13;;;12.73;;
7398;SDS011;3740;50.700;7.184;2023-01-25T05:48:55;13.97;;;12.63;;
7398;SDS011;3740;50.700;7.184;2023-01-25T05:51:21;14.73;;;13.30;;
7398;SDS011;3740;50.700;7.184;2023-01-25T05:53:46;13.70;;;12.40;;
7398;SDS011;3740;50.700;7.184;2023-01-25T05:56:12;13.70;;;12.40;;
7398;SDS011;3740;50.700;7.184;2023-01-25T05:58:37;14.10;;;12.70;;
7398;SDS011;3740;50.700;7.184;2023-01-25T06:01:04;13.77;;;12.47;;
7398;SDS011;3740;50.700;7.184;2023-01-25T06:03:31;13.97;;;12.67;;
7398;SDS011;3740;50.700;7.184;2023-01-25T06:05:58;13.63;;;12.33;;
7398;SDS011;3740;50.700;7.184;2023-01-25T06:08:26;14.40;;;13.00;;
7398;SDS011;3740;50.700;7.184;2023-01-25T06:10:52;13.80;;;12.47;;
7398;SDS011;3740;50.700;7.184;2023-01-25T06:13:18;14.67;;;13.27;;
7398;SDS011;3740;50.700;7.184;2023-01-25T06:15:50;13.30;;;12.00;;
7398;SDS011;3740;50.700;7.184;2023-01-25T06:18:17;13.90;;;12.50;;
7398;SDS011;3740;50.700;7.184;2023-01-25T06:20:42;14.50;;;13.17;;
7398;SDS011;3740;50.700;7.184;2023-01-25T06:23:08;14.17;;;12.87;;
7398;SDS011;3740;50.700;7.184;2023-01-25T06:25:33;14.50;;;13.10;;
7398;SDS011;3740;50.700;7.184;2023-01-25T06:27:59;13.30;;;12.00;;
7398;SDS011;3740;50.700;7.184;2023-01-25T06:30:25;14.47;;;13.07;;
7398;SDS011;3740;50.700;7.184;2023-01-25T06:32:50;14.90;;;12.27;;
7398;SDS011;3740;50.700;7.184;2023-01-25T06:35:16;14.17;;;12.87;;
7398;SDS011;3740;50.700;7.184;2023-01-25T06:37:41;13.47;;;12.17;;
7398;SDS011;3740;50.700;7.184;2023-01-25T06:40:07;13.40;;;12.10;;
7398;SDS011;3740;50.700;7.184;2023-01-25T06:42:33;14.27;;;12.87;;
7398;SDS011;3740;50.700;7.184;2023-01-25T06:44:58;14.47;;;12.93;;
7398;SDS011;3740;50.700;7.184;2023-01-25T06:47:24;13.97;;;12.57;;
7398;SDS011;3740;50.700;7.184;2023-01-25T06:49:49;13.73;;;12.33;;
7398;SDS011;3740;50.700;7.184;2023-01-25T06:52:15;14.20;;;12.80;;
7398;SDS011;3740;50.700;7.184;2023-01-25T06:54:40;15.57;;;14.00;;
7398;SDS011;3740;50.700;7.184;2023-01-25T06:57:06;14.07;;;12.67;;
7398;SDS011;3740;50.700;7.184;2023-01-25T06:59:34;15.17;;;13.57;;
7398;SDS011;3740;50.700;7.184;2023-01-25T07:01:59;15.30;;;13.70;;
7398;SDS011;3740;50.700;7.184;2023-01-25T07:04:25;13.57;;;12.37;;
7398;SDS011;3740;50.700;7.184;2023-01-25T07:06:51;16.00;;;14.27;;
7398;SDS011;3740;50.700;7.184;2023-01-25T07:09:16;13.97;;;12.60;;
7398;SDS011;3740;50.700;7.184;2023-01-25T07:11:47;14.80;;;13.33;;
7398;SDS011;3740;50.700;7.184;2023-01-25T07:14:13;14.83;;;13.43;;
7398;SDS011;3740;50.700;7.184;2023-01-25T07:16:39;14.93;;;13.43;;
7398;SDS011;3740;50.700;7.184;2023-01-25T07:19:05;14.10;;;12.70;;
7398;SDS011;3740;50.700;7.184;2023-01-25T07:21:31;14.60;;;13.20;;
7398;SDS011;3740;50.700;7.184;2023-01-25T07:24:00;14.10;;;12.70;;
7398;SDS011;3740;50.700;7.184;2023-01-25T07:26:27;13.13;;;11.83;;
7398;SDS011;3740;50.700;7.184;2023-01-25T07:28:53;15.10;;;13.70;;
7398;SDS011;3740;50.700;7.184;2023-01-25T07:31:21;14.33;;;12.93;;
7398;SDS011;3740;50.700;7.184;2023-01-25T07:33:47;14.13;;;12.80;;
7398;SDS011;3740;50.700;7.184;2023-01-25T07:36:20;13.47;;;12.07;;
7398;SDS011;3740;50.700;7.184;2023-01-25T07:38:46;14.30;;;13.00;;
7398;SDS011;3740;50.700;7.184;2023-01-25T07:41:12;14.03;;;12.67;;
7398;SDS011;3740;50.700;7.184;2023-01-25T07:43:38;14.67;;;13.27;;
7398;SDS011;3740;50.700;7.184;2023-01-25T07:46:05;14.60;;;13.10;;
7398;SDS011;3740;50.700;7.184;2023-01-25T07:48:36;14.67;;;13.27;;
7398;SDS011;3740;50.700;7.184;2023-01-25T07:51:03;14.97;;;13.47;;
7398;SDS011;3740;50.700;7.184;2023-01-25T07:53:38;14.37;;;12.87;;
7398;SDS011;3740;50.700;7.184;2023-01-25T07:56:05;14.07;;;12.67;;
7398;SDS011;3740;50.700;7.184;2023-01-25T07:58:32;14.83;;;13.23;;
7398;SDS011;3740;50.700;7.184;2023-01-25T08:01:04;15.07;;;13.57;;
7398;SDS011;3740;50.700;7.184;2023-01-25T08:03:31;15.07;;;13.53;;
7398;SDS011;3740;50.700;7.184;2023-01-25T08:05:56;16.50;;;14.33;;
7398;SDS011;3740;50.700;7.184;2023-01-25T08:08:22;15.20;;;13.60;;
7398;SDS011;3740;50.700;7.184;2023-01-25T08:10:47;15.33;;;13.73;;
7398;SDS011;3740;50.700;7.184;2023-01-25T08:13:13;16.17;;;14.63;;
7398;SDS011;3740;50.700;7.184;2023-01-25T08:15:39;15.30;;;13.80;;
7398;SDS011;3740;50.700;7.184;2023-01-25T08:18:04;15.37;;;13.87;;
7398;SDS011;3740;50.700;7.184;2023-01-25T08:20:30;17.57;;;15.77;;
7398;SDS011;3740;50.700;7.184;2023-01-25T08:22:55;16.70;;;15.03;;
7398;SDS011;3740;50.700;7.184;2023-01-25T08:25:21;15.60;;;14.00;;
7398;SDS011;3740;50.700;7.184;2023-01-25T08:27:46;15.80;;;14.20;;
7398;SDS011;3740;50.700;7.184;2023-01-25T08:30:12;15.73;;;14.13;;
7398;SDS011;3740;50.700;7.184;2023-01-25T08:32:38;14.13;;;12.73;;
7398;SDS011;3740;50.700;7.184;2023-01-25T08:35:03;15.37;;;13.53;;
7398;SDS011;3740;50.700;7.184;2023-01-25T08:37:29;16.53;;;14.70;;
7398;SDS011;3740;50.700;7.184;2023-01-25T08:39:55;15.73;;;14.13;;
7398;SDS011;3740;50.700;7.184;2023-01-25T08:42:22;16.70;;;15.00;;
7398;SDS011;3740;50.700;7.184;2023-01-25T08:44:48;16.53;;;14.83;;
7398;SDS011;3740;50.700;7.184;2023-01-25T08:47:13;16.77;;;15.00;;
7398;SDS011;3740;50.700;7.184;2023-01-25T08:49:39;16.07;;;14.47;;
7398;SDS011;3740;50.700;7.184;2023-01-25T08:52:04;17.80;;;15.90;;
7398;SDS011;3740;50.700;7.184;2023-01-25T08:54:30;18.23;;;16.43;;
7398;SDS011;3740;50.700;7.184;2023-01-25T08:56:56;18.63;;;16.70;;
7398;SDS011;3740;50.700;7.184;2023-01-25T08:59:21;17.17;;;15.47;;
7398;SDS011;3740;50.700;7.184;2023-01-25T09:01:47;17.30;;;15.57;;
7398;SDS011;3740;50.700;7.184;2023-01-25T09:04:12;16.97;;;15.27;;
7398;SDS011;3740;50.700;7.184;2023-01-25T09:06:38;16.97;;;15.17;;
7398;SDS011;3740;50.700;7.184;2023-01-25T09:09:03;16.00;;;14.40;;
7398;SDS011;3740;50.700;7.184;2023-01-25T09:11:29;16.80;;;15.10;;
7398;SDS011;3740;50.700;7.184;2023-01-25T09:13:57;18.13;;;16.33;;
7398;SDS011;3740;50.700;7.184;2023-01-25T09:16:22;19.27;;;17.37;;
7398;SDS011;3740;50.700;7.184;2023-01-25T09:18:53;18.30;;;16.40;;
7398;SDS011;3740;50.700;7.184;2023-01-25T09:21:20;18.30;;;16.50;;
7398;SDS011;3740;50.700;7.184;2023-01-25T09:23:47;17.17;;;15.57;;
7398;SDS011;3740;50.700;7.184;2023-01-25T09:26:14;18.27;;;16.40;;
7398;SDS011;3740;50.700;7.184;2023-01-25T09:28:40;19.10;;;17.20;;
7398;SDS011;3740;50.700;7.184;2023-01-25T09:31:10;17.90;;;16.10;;
7398;SDS011;3740;50.700;7.184;2023-01-25T09:33:36;22.07;;;15.40;;
7398;SDS011;3740;50.700;7.184;2023-01-25T09:36:03;18.13;;;16.23;;
7398;SDS011;3740;50.700;7.184;2023-01-25T09:38:29;17.43;;;15.73;;
7398;SDS011;3740;50.700;7.184;2023-01-25T09:40:58;19.40;;;17.40;;
7398;SDS011;3740;50.700;7.184;2023-01-25T09:46:08;17.43;;;15.83;;
7398;SDS011;3740;50.700;7.184;2023-01-25T09:48:55;17.60;;;15.80;;
7398;SDS011;3740;50.700;7.184;2023-01-25T09:51:44;17.27;;;15.47;;
7398;SDS011;3740;50.700;7.184;2023-01-25T09:54:15;18.53;;;16.63;;
7398;SDS011;3740;50.700;7.184;2023-01-25T09:56:42;19.37;;;16.47;;
7398;SDS011;3740;50.700;7.184;2023-01-25T09:59:10;18.43;;;16.53;;
7398;SDS011;3740;50.700;7.184;2023-01-25T10:01:48;18.00;;;16.10;;
7398;SDS011;3740;50.700;7.184;2023-01-25T10:04:16;17.90;;;16.10;;
7398;SDS011;3740;50.700;7.184;2023-01-25T10:07:09;16.60;;;15.00;;
7398;SDS011;3740;50.700;7.184;2023-01-25T10:09:52;17.43;;;15.73;;
7398;SDS011;3740;50.700;7.184;2023-01-25T10:12:27;18.53;;;16.63;;
7398;SDS011;3740;50.700;7.184;2023-01-25T10:14:58;18.07;;;16.17;;
7398;SDS011;3740;50.700;7.184;2023-01-25T10:17:34;17.90;;;16.13;;
7398;SDS011;3740;50.700;7.184;2023-01-25T10:20:24;16.57;;;14.97;;
7398;SDS011;3740;50.700;7.184;2023-01-25T10:23:05;16.80;;;15.20;;
7398;SDS011;3740;50.700;7.184;2023-01-25T10:25:57;17.57;;;15.77;;
7398;SDS011;3740;50.700;7.184;2023-01-25T10:28:36;16.73;;;15.07;;
7398;SDS011;3740;50.700;7.184;2023-01-25T10:34:20;16.93;;;15.23;;
7398;SDS011;3740;50.700;7.184;2023-01-25T10:36:51;17.83;;;16.03;;
7398;SDS011;3740;50.700;7.184;2023-01-25T10:39:19;17.23;;;15.53;;
7398;SDS011;3740;50.700;7.184;2023-01-25T10:41:48;16.87;;;15.17;;
7398;SDS011;3740;50.700;7.184;2023-01-25T10:44:18;16.87;;;15.27;;
7398;SDS011;3740;50.700;7.184;2023-01-25T10:46:49;16.00;;;14.50;;
7398;SDS011;3740;50.700;7.184;2023-01-25T10:49:41;16.73;;;15.07;;
7398;SDS011;3740;50.700;7.184;2023-01-25T10:52:18;17.37;;;15.23;;
7398;SDS011;3740;50.700;7.184;2023-01-25T10:54:47;22.30;;;19.90;;
7398;SDS011;3740;50.700;7.184;2023-01-25T10:57:30;18.00;;;16.10;;
7398;SDS011;3740;50.700;7.184;2023-01-25T10:59:56;18.73;;;16.83;;
7398;SDS011;3740;50.700;7.184;2023-01-25T11:02:35;16.10;;;14.60;;
7398;SDS011;3740;50.700;7.184;2023-01-25T11:08:19;16.13;;;14.53;;
7398;SDS011;3740;50.700;7.184;2023-01-25T11:10:49;15.07;;;13.60;;
7398;SDS011;3740;50.700;7.184;2023-01-25T11:15:41;15.13;;;13.70;;
7398;SDS011;3740;50.700;7.184;2023-01-25T11:18:17;15.07;;;13.67;;
7398;SDS011;3740;50.700;7.184;2023-01-25T11:20:43;15.97;;;14.37;;
7398;SDS011;3740;50.700;7.184;2023-01-25T11:23:24;15.00;;;13.43;;
7398;SDS011;3740;50.700;7.184;2023-01-25T11:25:51;15.60;;;14.10;;
7398;SDS011;3740;50.700;7.184;2023-01-25T11:28:23;17.43;;;15.63;;
7398;SDS011;3740;50.700;7.184;2023-01-25T11:30:49;15.87;;;14.27;;
7398;SDS011;3740;50.700;7.184;2023-01-25T11:33:17;23.90;;;18.63;;
7398;SDS011;3740;50.700;7.184;2023-01-25T11:41:58;19.07;;;16.93;;
7398;SDS011;3740;50.700;7.184;2023-01-25T11:44:43;19.80;;;17.80;;
7398;SDS011;3740;50.700;7.184;2023-01-25T11:55:59;18.90;;;16.90;;
7398;SDS011;3740;50.700;7.184;2023-01-25T12:02:12;19.63;;;17.63;;
7398;SDS011;3740;50.700;7.184;2023-01-25T12:11:03;21.40;;;19.20;;
7398;SDS011;3740;50.700;7.184;2023-01-25T12:13:43;22.27;;;19.87;;
7398;SDS011;3740;50.700;7.184;2023-01-25T12:29:49;21.50;;;19.40;;
7398;SDS011;3740;50.700;7.184;2023-01-25T12:32:33;20.63;;;18.63;;
7398;SDS011;3740;50.700;7.184;2023-01-25T12:38:01;23.00;;;20.63;;
7398;SDS011;3740;50.700;7.184;2023-01-25T12:43:30;23.03;;;20.60;;
7398;SDS011;3740;50.700;7.184;2023-01-25T12:46:09;21.77;;;19.47;;
7398;SDS011;3740;50.700;7.184;2023-01-25T12:48:46;22.63;;;20.33;;
7398;SDS011;3740;50.700;7.184;2023-01-25T12:51:17;25.37;;;22.63;;
7398;SDS011;3740;50.700;7.184;2023-01-25T12:53:44;26.77;;;23.97;;
7398;SDS011;3740;50.700;7.184;2023-01-25T13:01:54;25.00;;;22.30;;
7398;SDS011;3740;50.700;7.184;2023-01-25T13:15:38;27.67;;;24.77;;
7398;SDS011;3740;50.700;7.184;2023-01-25T13:18:47;25.50;;;22.80;;
7398;SDS011;3740;50.700;7.184;2023-01-25T13:20:58;29.53;;;26.43;;
7398;SDS011;3740;50.700;7.184;2023-01-25T13:23:36;27.00;;;24.07;;
7398;SDS011;3740;50.700;7.184;2023-01-25T13:28:45;25.27;;;22.40;;
7398;SDS011;3740;50.700;7.184;2023-01-25T13:34:02;24.63;;;22.10;;
7398;SDS011;3740;50.700;7.184;2023-01-25T13:36:47;24.27;;;21.60;;
7398;SDS011;3740;50.700;7.184;2023-01-25T13:41:58;23.37;;;20.87;;
7398;SDS011;3740;50.700;7.184;2023-01-25T13:44:27;23.40;;;21.10;;
7398;SDS011;3740;50.700;7.184;2023-01-25T13:46:58;25.37;;;22.67;;
7398;SDS011;3740;50.700;7.184;2023-01-25T13:49:29;26.53;;;23.73;;
7398;SDS011;3740;50.700;7.184;2023-01-25T13:52:15;25.60;;;23.07;;
7398;SDS011;3740;50.700;7.184;2023-01-25T13:54:46;21.83;;;19.63;;
7398;SDS011;3740;50.700;7.184;2023-01-25T13:57:14;23.83;;;21.33;;
7398;SDS011;3740;50.700;7.184;2023-01-25T13:59:56;23.43;;;20.30;;
7398;SDS011;3740;50.700;7.184;2023-01-25T14:02:23;24.63;;;22.00;;
7398;SDS011;3740;50.700;7.184;2023-01-25T14:04:49;26.87;;;22.77;;
7398;SDS011;3740;50.700;7.184;2023-01-25T14:07:17;24.07;;;21.57;;
7398;SDS011;3740;50.700;7.184;2023-01-25T14:09:47;24.03;;;21.30;;
7398;SDS011;3740;50.700;7.184;2023-01-25T14:12:19;25.07;;;22.40;;
7398;SDS011;3740;50.700;7.184;2023-01-25T14:15:19;22.80;;;20.13;;
7398;SDS011;3740;50.700;7.184;2023-01-25T14:20:43;22.50;;;20.10;;
7398;SDS011;3740;50.700;7.184;2023-01-25T14:23:19;23.50;;;21.00;;
7398;SDS011;3740;50.700;7.184;2023-01-25T14:25:44;24.43;;;21.83;;
7398;SDS011;3740;50.700;7.184;2023-01-25T14:28:10;26.30;;;23.43;;
7398;SDS011;3740;50.700;7.184;2023-01-25T14:30:38;25.33;;;21.23;;
7398;SDS011;3740;50.700;7.184;2023-01-25T14:35:45;22.27;;;19.87;;
7398;SDS011;3740;50.700;7.184;2023-01-25T14:41:02;22.47;;;20.07;;
7398;SDS011;3740;50.700;7.184;2023-01-25T14:43:40;21.50;;;19.20;;
7398;SDS011;3740;50.700;7.184;2023-01-25T14:48:46;22.10;;;19.73;;
7398;SDS011;3740;50.700;7.184;2023-01-25T14:51:25;23.07;;;20.27;;
7398;SDS011;3740;50.700;7.184;2023-01-25T14:53:55;24.97;;;22.00;;
7398;SDS011;3740;50.700;7.184;2023-01-25T14:59:05;23.63;;;21.13;;
7398;SDS011;3740;50.700;7.184;2023-01-25T15:01:36;23.20;;;20.70;;
7398;SDS011;3740;50.700;7.184;2023-01-25T15:04:04;23.97;;;20.50;;
7398;SDS011;3740;50.700;7.184;2023-01-25T15:06:45;26.27;;;23.10;;
7398;SDS011;3740;50.700;7.184;2023-01-25T15:09:28;25.57;;;22.77;;
7398;SDS011;3740;50.700;7.184;2023-01-25T15:14:48;22.50;;;20.13;;
7398;SDS011;3740;50.700;7.184;2023-01-25T15:20:02;24.53;;;21.80;;
7398;SDS011;3740;50.700;7.184;2023-01-25T15:22:28;24.33;;;21.73;;
7398;SDS011;3740;50.700;7.184;2023-01-25T15:24:53;27.23;;;24.37;;
7398;SDS011;3740;50.700;7.184;2023-01-25T15:27:19;26.63;;;23.83;;
7398;SDS011;3740;50.700;7.184;2023-01-25T15:29:45;27.00;;;23.23;;
7398;SDS011;3740;50.700;7.184;2023-01-25T15:32:15;26.67;;;23.53;;
7398;SDS011;3740;50.700;7.184;2023-01-25T15:34:44;24.70;;;21.40;;
7398;SDS011;3740;50.700;7.184;2023-01-25T15:37:10;25.43;;;22.30;;
7398;SDS011;3740;50.700;7.184;2023-01-25T15:39:36;24.47;;;21.73;;
7398;SDS011;3740;50.700;7.184;2023-01-25T15:42:03;22.90;;;20.43;;
7398;SDS011;3740;50.700;7.184;2023-01-25T15:44:29;23.33;;;20.83;;
7398;SDS011;3740;50.700;7.184;2023-01-25T15:46:54;22.77;;;20.37;;
7398;SDS011;3740;50.700;7.184;2023-01-25T15:49:24;23.03;;;20.47;;
7398;SDS011;3740;50.700;7.184;2023-01-25T15:51:52;23.77;;;20.50;;
7398;SDS011;3740;50.700;7.184;2023-01-25T15:54:18;26.07;;;22.37;;
7398;SDS011;3740;50.700;7.184;2023-01-25T15:56:44;26.13;;;23.30;;
7398;SDS011;3740;50.700;7.184;2023-01-25T15:59:15;26.63;;;23.73;;
7398;SDS011;3740;50.700;7.184;2023-01-25T16:01:41;25.40;;;22.50;;
7398;SDS011;3740;50.700;7.184;2023-01-25T16:04:07;28.93;;;25.73;;
7398;SDS011;3740;50.700;7.184;2023-01-25T16:06:38;29.20;;;24.83;;
7398;SDS011;3740;50.700;7.184;2023-01-25T16:11:50;30.47;;;26.10;;
7398;SDS011;3740;50.700;7.184;2023-01-25T16:14:17;30.30;;;26.50;;
7398;SDS011;3740;50.700;7.184;2023-01-25T16:16:44;29.67;;;26.27;;
7398;SDS011;3740;50.700;7.184;2023-01-25T16:19:15;27.47;;;24.60;;
7398;SDS011;3740;50.700;7.184;2023-01-25T16:21:42;30.13;;;24.67;;
7398;SDS011;3740;50.700;7.184;2023-01-25T16:24:08;29.58;;;26.25;;
7398;SDS011;3740;50.700;7.184;2023-01-25T16:26:35;29.60;;;25.87;;
7398;SDS011;3740;50.700;7.184;2023-01-25T16:29:21;25.37;;;22.60;;
7398;SDS011;3740;50.700;7.184;2023-01-25T16:31:48;26.10;;;23.37;;
7398;SDS011;3740;50.700;7.184;2023-01-25T16:34:14;26.73;;;23.83;;
7398;SDS011;3740;50.700;7.184;2023-01-25T16:36:39;26.40;;;23.60;;
7398;SDS011;3740;50.700;7.184;2023-01-25T16:39:15;28.10;;;24.83;;
7398;SDS011;3740;50.700;7.184;2023-01-25T16:41:46;26.40;;;23.57;;
7398;SDS011;3740;50.700;7.184;2023-01-25T16:44:12;27.47;;;24.53;;
7398;SDS011;3740;50.700;7.184;2023-01-25T16:46:38;26.00;;;23.13;;
7398;SDS011;3740;50.700;7.184;2023-01-25T16:49:03;26.93;;;24.03;;
7398;SDS011;3740;50.700;7.184;2023-01-25T16:51:31;28.03;;;25.03;;
7398;SDS011;3740;50.700;7.184;2023-01-25T16:53:57;25.60;;;22.73;;